Time;durP1;ratioP1;P1;durP2;ratioP2;P2;SDS_P1;SDS_P2;PMS_P1;PMS_P2;Temp;Humidity;BMP_temperature;BMP_pressure;BME280_temperature;BME280_humidity;BME280_pressure;Samples;Min_cycle;Max_cycle;Signal;HPM_P1;HPM_P2
2021/06/12 00:01:22;;;;;;;16.60;9.27;;;;;;;17.28;83.97;100342.47;5012900;28;20034;-72
2021/06/12 00:03:47;;;;;;;14.07;9.40;;;;;;;16.77;83.94;100281.16;5013157;28;20030;-71
2021/06/12 00:06:13;;;;;;;18.33;10.00;;;;;;;17.02;84.45;100354.41;4997307;28;20034;-74
2021/06/12 00:08:38;;;;;;;18.02;9.73;;;;;;;16.97;84.62;100350.03;4992394;28;20102;-71
2021/06/12 00:11:04;;;;;;;12.35;9.00;;;;;;;16.92;84.11;100311.72;4993179;28;20088;-72
2021/06/12 00:13:31;;;;;;;13.15;8.70;;;;;;;17.26;83.59;100359.81;4993229;28;20030;-71
2021/06/12 00:15:56;;;;;;;15.68;8.85;;;;;;;17.39;83.17;100365.13;4992980;28;20502;-73
2021/06/12 00:18:23;;;;;;;20.08;8.73;;;;;;;17.33;83.23;100357.25;4992230;28;20121;-74
2021/06/12 00:20:49;;;;;;;12.50;8.60;;;;;;;17.32;83.22;100358.13;4993283;28;20160;-73
2021/06/12 00:23:16;;;;;;;14.05;8.10;;;;;;;17.35;83.69;100361.63;4992012;28;20034;-71
2021/06/12 00:25:42;;;;;;;11.90;8.10;;;;;;;17.47;83.24;100355.63;4993163;28;20038;-74
2021/06/12 00:28:07;;;;;;;13.45;8.82;;;;;;;17.47;83.21;100347.81;4991508;28;20033;-75
2021/06/12 00:30:33;;;;;;;11.13;8.02;;;;;;;17.20;82.66;100299.78;4993119;28;20026;-73
2021/06/12 00:32:59;;;;;;;7.93;7.05;;;;;;;17.47;82.80;100345.19;4993110;28;20026;-75
2021/06/12 00:35:25;;;;;;;11.05;7.38;;;;;;;17.38;83.37;100339.91;4993289;28;20030;-71
2021/06/12 00:37:51;;;;;;;10.77;7.55;;;;;;;17.49;83.21;100346.06;5005869;28;20045;-71
2021/06/12 00:40:19;;;;;;;8.95;6.82;;;;;;;17.38;83.01;100338.16;5012744;28;20057;-73
2021/06/12 00:42:45;;;;;;;9.75;6.88;;;;;;;17.47;83.28;100350.41;5012434;28;20104;-74
2021/06/12 00:45:17;;;;;;;11.30;6.40;;;;;;;17.51;82.61;100341.75;4990106;28;20042;-73
2021/06/12 00:47:43;;;;;;;13.98;7.60;;;;;;;17.50;82.63;100347.81;4990372;28;20045;-72
2021/06/12 00:50:10;;;;;;;13.63;8.27;;;;;;;17.40;83.34;100333.81;4990247;28;20042;-71
2021/06/12 00:52:37;;;;;;;14.65;9.57;;;;;;;17.13;82.70;100301.47;4990456;28;20027;-73
2021/06/12 00:55:03;;;;;;;16.50;9.32;;;;;;;17.32;83.09;100342.47;4990112;28;20112;-76
2021/06/12 00:57:29;;;;;;;14.07;10.52;;;;;;;16.92;82.96;100280.44;4974101;28;20034;-73
2021/06/12 00:59:55;;;;;;;14.20;9.45;;;;;;;17.22;83.33;100355.47;4990067;28;20129;-73
2021/06/12 01:02:20;;;;;;;12.57;9.40;;;;;;;17.14;83.64;100342.31;4980417;28;20030;-73
2021/06/12 01:05:23;;;;;;;12.75;9.77;;;;;;;16.94;84.26;100356.94;4973670;28;20403;-71
2021/06/12 01:07:49;;;;;;;19.23;10.90;;;;;;;16.26;85.72;100294.59;4990015;28;20034;-73
2021/06/12 01:10:18;;;;;;;26.60;10.68;;;;;;;16.38;85.46;100342.47;4951155;28;20035;-71
2021/06/12 01:13:06;;;;;;;32.37;10.40;;;;;;;16.46;85.88;100364.25;4951571;28;20039;-73
2021/06/12 01:15:48;;;;;;;12.02;8.98;;;;;;;16.48;86.11;100363.41;4955611;28;20534;-72
2021/06/12 01:18:16;;;;;;;15.27;9.20;;;;;;;16.16;86.59;100331.78;4970683;28;20030;-72
2021/06/12 01:20:49;;;;;;;12.45;8.73;;;;;;;16.13;87.58;100356.06;4970184;28;20203;-72
2021/06/12 01:23:23;;;;;;;13.85;9.18;;;;;;;16.17;88.54;100368.28;4970662;28;20035;-72
2021/06/12 01:25:51;;;;;;;11.13;8.60;;;;;;;16.07;88.52;100329.94;4970151;28;20060;-72
2021/06/12 01:31:35;;;;;;;12.75;9.15;;;;;;;16.60;87.58;100333.16;4970602;28;20115;-71
2021/06/12 01:34:03;;;;;;;13.68;9.90;;;;;;;16.78;87.40;100350.69;4970340;28;20027;-72
2021/06/12 01:36:32;;;;;;;13.40;10.00;;;;;;;16.44;87.43;100306.91;4970445;28;20050;-72
2021/06/12 01:39:00;;;;;;;16.67;10.67;;;;;;;16.68;88.10;100347.09;4970097;28;20030;-74
2021/06/12 01:41:28;;;;;;;12.20;10.07;;;;;;;16.42;88.00;100286.91;4993531;28;20308;-71
2021/06/12 01:43:55;;;;;;;12.65;9.52;;;;;;;16.88;87.69;100360.31;5010376;28;20037;-72
2021/06/12 01:46:22;;;;;;;15.15;9.65;;;;;;;16.91;87.09;100357.81;5011492;28;20504;-73
2021/06/12 01:48:48;;;;;;;13.90;9.30;;;;;;;16.77;86.58;100325.47;5011601;28;20478;-72
2021/06/12 01:54:00;;;;;;;14.68;8.95;;;;;;;16.68;85.46;100299.31;5011293;28;20040;-72
2021/06/12 01:56:26;;;;;;;14.68;8.48;;;;;;;17.04;85.58;100374.41;5011481;28;20030;-72
2021/06/12 01:58:53;;;;;;;12.50;8.57;;;;;;;16.95;85.50;100346.53;5011541;28;20033;-74
2021/06/12 02:01:22;;;;;;;15.90;9.30;;;;;;;17.02;85.45;100352.66;5011535;28;20030;-76
2021/06/12 02:03:49;;;;;;;10.05;8.43;;;;;;;16.81;84.76;100317.69;5010977;28;20030;-73
2021/06/12 02:06:18;;;;;;;11.13;8.57;;;;;;;17.09;85.20;100370.13;5011718;28;20472;-73
2021/06/12 02:11:47;;;;;;;14.68;8.68;;;;;;;17.00;85.17;100349.19;5011468;28;20037;-72
2021/06/12 02:14:14;;;;;;;25.00;9.45;;;;;;;17.11;84.86;100360.56;5009490;28;20038;-75
2021/06/12 02:16:41;;;;;;;14.52;8.63;;;;;;;17.07;84.83;100355.31;5011327;28;20026;-73
2021/06/12 02:19:09;;;;;;;11.85;8.70;;;;;;;17.02;84.95;100362.22;5010205;28;20499;-72
2021/06/12 02:21:36;;;;;;;16.58;8.57;;;;;;;16.98;85.41;100357.00;5011310;28;20025;-72
2021/06/12 02:24:03;;;;;;;14.45;9.27;;;;;;;17.00;85.53;100364.84;5011005;28;20378;-73
2021/06/12 02:26:31;;;;;;;17.85;9.50;;;;;;;17.03;85.24;100366.59;5011374;28;20054;-71
2021/06/12 02:28:57;;;;;;;14.18;9.30;;;;;;;16.79;85.29;100358.50;5010505;28;20028;-72
2021/06/12 02:31:23;;;;;;;16.60;9.88;;;;;;;16.81;85.89;100364.63;5012219;28;20173;-73
2021/06/12 02:33:48;;;;;;;13.18;9.07;;;;;;;16.56;86.24;100314.00;5014983;28;20054;-72
2021/06/12 02:36:15;;;;;;;16.40;8.95;;;;;;;16.42;86.21;100297.34;5015427;28;20133;-72
2021/06/12 02:38:41;;;;;;;17.80;8.57;;;;;;;16.73;86.82;100354.97;5014993;28;20026;-72
2021/06/12 02:41:06;;;;;;;15.00;9.63;;;;;;;16.72;87.05;100358.44;5014734;28;20405;-75
2021/06/12 02:43:32;;;;;;;12.77;8.85;;;;;;;16.57;87.30;100343.53;5014578;28;20022;-73
2021/06/12 02:46:00;;;;;;;11.10;7.88;;;;;;;16.70;87.44;100366.25;5014741;28;20064;-72
2021/06/12 02:48:30;;;;;;;15.90;7.88;;;;;;;16.80;86.63;100367.22;5014767;28;20030;-71
2021/06/12 02:50:57;;;;;;;11.13;7.85;;;;;;;16.89;86.20;100369.03;5014321;28;20033;-71
2021/06/12 02:56:27;;;;;;;11.57;7.55;;;;;;;16.94;85.85;100370.84;5014380;28;20465;-74
2021/06/12 02:59:00;;;;;;;15.82;8.90;;;;;;;16.94;85.78;100381.28;4996187;28;20123;-72
2021/06/12 03:01:27;;;;;;;14.70;8.10;;;;;;;17.01;85.42;100381.34;5013791;28;20030;-74
2021/06/12 03:03:53;;;;;;;16.02;8.70;;;;;;;17.01;84.97;100371.81;5014260;28;20022;-72
2021/06/12 03:06:20;;;;;;;19.05;8.98;;;;;;;16.91;85.81;100368.22;4980015;28;20531;-71
2021/06/12 03:08:51;;;;;;;12.32;8.43;;;;;;;17.08;85.56;100383.16;5013931;28;20101;-78
2021/06/12 03:11:55;;;;;;;14.60;8.30;;;;;;;17.16;85.62;100381.50;5014648;28;20030;-72
2021/06/12 03:14:38;;;;;;;14.23;9.20;;;;;;;17.14;85.24;100383.19;4972806;28;20050;-73
2021/06/12 03:17:06;;;;;;;18.05;8.70;;;;;;;17.24;84.94;100395.44;4972632;28;20035;-73
2021/06/12 03:19:32;;;;;;;13.75;8.90;;;;;;;17.25;84.83;100392.00;4972868;28;20121;-72
2021/06/12 03:21:58;;;;;;;16.05;9.05;;;;;;;17.09;85.47;100392.72;4972638;28;20178;-71
2021/06/12 03:24:24;;;;;;;11.38;8.50;;;;;;;16.97;86.39;100396.06;4972460;28;20426;-72
2021/06/12 03:26:51;;;;;;;15.25;8.60;;;;;;;17.01;86.65;100399.59;4972370;28;20101;-72
2021/06/12 03:29:17;;;;;;;16.27;8.70;;;;;;;17.07;86.56;100397.03;4972182;28;20039;-74
2021/06/12 03:31:43;;;;;;;19.10;10.25;;;;;;;17.04;86.64;100399.63;4972300;28;20479;-73
2021/06/12 03:37:14;;;;;;;17.55;9.75;;;;;;;16.88;88.22;100406.41;4972725;28;20077;-71
2021/06/12 03:39:40;;;;;;;19.52;9.88;;;;;;;16.42;88.76;100344.22;4972374;28;20047;-75
2021/06/12 03:42:08;;;;;;;19.02;10.13;;;;;;;16.80;89.59;100417.63;4972523;28;20043;-74
2021/06/12 03:44:35;;;;;;;14.80;9.93;;;;;;;16.79;89.95;100418.47;4971921;28;20037;-72
2021/06/12 03:47:02;;;;;;;15.98;10.05;;;;;;;16.78;89.93;100419.31;5013662;28;20033;-73
2021/06/12 03:49:27;;;;;;;14.43;10.70;;;;;;;16.69;90.14;100411.41;5012769;28;20041;-73
2021/06/12 03:51:54;;;;;;;18.17;11.50;;;;;;;16.73;90.77;100407.97;5012441;28;20022;-75
2021/06/12 03:54:22;;;;;;;17.60;11.77;;;;;;;16.73;90.87;100420.16;5012847;28;20033;-74
2021/06/12 03:56:48;;;;;;;18.23;12.35;;;;;;;16.80;91.48;100424.59;5013552;28;20040;-71
2021/06/12 03:59:13;;;;;;;18.73;11.93;;;;;;;16.73;91.71;100410.59;5013525;28;20494;-72
2021/06/12 04:01:41;;;;;;;22.63;12.38;;;;;;;16.81;91.96;100427.19;5013353;28;20192;-72
2021/06/12 04:04:06;;;;;;;21.42;12.40;;;;;;;16.84;91.97;100431.56;5013445;28;20121;-74
2021/06/12 04:06:32;;;;;;;17.13;12.10;;;;;;;16.85;91.58;100428.09;5013159;28;20161;-73
2021/06/12 04:08:58;;;;;;;18.38;12.32;;;;;;;16.65;92.40;100405.28;5013283;28;20034;-72
2021/06/12 04:11:23;;;;;;;16.10;13.30;;;;;;;16.88;92.79;100411.63;5013281;28;20030;-70
2021/06/12 04:13:50;;;;;;;15.80;11.93;;;;;;;17.00;92.33;100423.91;5013286;28;20029;-73
2021/06/12 04:19:19;;;;;;;19.75;12.75;;;;;;;16.93;92.00;100421.25;5013371;28;20044;-73
2021/06/12 04:21:46;;;;;;;19.20;12.88;;;;;;;16.83;92.49;100419.38;5011763;28;20045;-73
2021/06/12 04:24:30;;;;;;;19.08;12.00;;;;;;;16.88;93.58;100419.44;5012970;28;20061;-72
2021/06/12 04:26:56;;;;;;;17.48;12.25;;;;;;;16.79;93.30;100405.44;5011701;28;20072;-71
2021/06/12 04:29:21;;;;;;;17.65;13.32;;;;;;;16.88;93.25;100425.50;5013261;28;20026;-71
2021/06/12 04:31:47;;;;;;;16.30;12.80;;;;;;;16.95;93.68;100422.16;5013141;28;20092;-70
2021/06/12 04:34:12;;;;;;;16.52;12.40;;;;;;;16.79;93.23;100368.94;5012967;28;20037;-71
2021/06/12 04:36:38;;;;;;;15.18;13.52;;;;;;;17.22;92.85;100411.97;5013153;28;20038;-73
2021/06/12 04:39:04;;;;;;;14.85;12.13;;;;;;;17.38;91.87;100420.78;5013232;28;20036;-71
2021/06/12 04:41:30;;;;;;;17.77;12.23;;;;;;;17.24;92.94;100428.50;5012835;28;20405;-71
2021/06/12 04:43:56;;;;;;;14.40;12.30;;;;;;;17.28;93.64;100431.16;5012557;28;20115;-71
2021/06/12 04:46:22;;;;;;;22.73;13.80;;;;;;;17.38;92.65;100436.44;5011298;28;20061;-73
2021/06/12 04:48:47;;;;;;;14.13;12.20;;;;;;;17.49;92.82;100437.41;5012718;28;20026;-73
2021/06/12 04:51:13;;;;;;;18.77;13.38;;;;;;;17.49;93.03;100437.41;5012768;28;20448;-72
2021/06/12 04:53:39;;;;;;;16.77;12.65;;;;;;;17.65;92.09;100432.31;5011071;28;20096;-73
2021/06/12 04:56:05;;;;;;;18.58;12.35;;;;;;;17.58;90.88;100428.78;5011512;28;20018;-73
2021/06/12 04:58:30;;;;;;;14.57;11.30;;;;;;;17.64;91.13;100431.44;5011995;28;20088;-71
2021/06/12 05:00:56;;;;;;;18.08;12.30;;;;;;;17.63;91.08;100414.00;5011834;28;20080;-77
2021/06/12 05:03:22;;;;;;;16.15;11.45;;;;;;;17.37;90.62;100379.91;5010223;28;20121;-71
2021/06/12 05:05:48;;;;;;;13.35;10.48;;;;;;;17.37;90.16;100365.13;4993480;28;20113;-71
2021/06/12 05:08:17;;;;;;;13.15;11.38;;;;;;;17.85;90.73;100430.72;5010452;28;20081;-71
2021/06/12 05:10:43;;;;;;;14.70;11.03;;;;;;;17.78;91.78;100439.34;5011865;28;20029;-73
2021/06/12 05:13:08;;;;;;;15.65;11.25;;;;;;;17.73;92.09;100441.06;5011632;28;20083;-74
2021/06/12 05:15:34;;;;;;;16.25;10.30;;;;;;;17.86;90.59;100445.53;5011940;28;20026;-72
2021/06/12 05:18:04;;;;;;;15.25;10.60;;;;;;;17.95;90.41;100447.34;5011857;28;20033;-74
2021/06/12 05:20:31;;;;;;;17.92;10.07;;;;;;;18.07;90.22;100454.41;4994092;28;20496;-72
2021/06/12 05:26:00;;;;;;;12.60;10.07;;;;;;;18.11;89.34;100437.88;5009770;28;20116;-73
2021/06/12 05:28:25;;;;;;;14.75;10.27;;;;;;;18.31;89.71;100461.47;5011184;28;20030;-71
2021/06/12 05:30:51;;;;;;;13.70;9.23;;;;;;;18.31;88.80;100453.66;5009211;28;20032;-72
2021/06/12 05:33:16;;;;;;;13.82;8.77;;;;;;;18.30;88.67;100449.28;5011257;28;20017;-72
2021/06/12 05:35:42;;;;;;;9.25;7.60;;;;;;;18.28;87.19;100453.66;5011421;28;20033;-72
2021/06/12 05:38:10;;;;;;;12.95;9.20;;;;;;;18.26;88.42;100453.63;5011241;28;20077;-73
2021/06/12 05:40:35;;;;;;;10.05;8.98;;;;;;;18.21;89.74;100463.16;5011656;28;20038;-75
2021/06/12 05:43:01;;;;;;;10.60;8.93;;;;;;;18.24;87.75;100441.41;5011359;28;20111;-73
2021/06/12 05:45:35;;;;;;;12.45;8.75;;;;;;;18.43;87.60;100466.78;5009667;28;20036;-75
2021/06/12 05:48:01;;;;;;;12.38;9.38;;;;;;;18.54;89.41;100461.59;5000610;28;20027;-75
2021/06/12 05:50:26;;;;;;;10.85;8.32;;;;;;;18.67;87.73;100462.50;5002376;28;20056;-72
2021/06/12 05:52:52;;;;;;;12.80;8.07;;;;;;;18.75;86.90;100454.69;5011231;28;20496;-76
2021/06/12 05:55:17;;;;;;;9.90;8.20;;;;;;;18.83;85.38;100470.38;5010476;28;20030;-72
2021/06/12 05:57:43;;;;;;;8.65;7.80;;;;;;;18.69;86.51;100466.00;5011484;28;20101;-70
2021/06/12 06:00:10;;;;;;;10.75;8.73;;;;;;;18.70;87.04;100469.50;5011273;28;20037;-74
2021/06/12 06:02:35;;;;;;;11.40;9.35;;;;;;;18.74;87.78;100468.63;5009976;28;20385;-69
2021/06/12 06:05:01;;;;;;;12.30;11.02;;;;;;;18.75;88.26;100467.75;5011565;28;20091;-70
2021/06/12 06:08:20;;;;;;;12.55;9.95;;;;;;;18.88;88.64;100464.31;5015069;28;20717;-70
2021/06/12 06:10:45;;;;;;;16.02;9.98;;;;;;;19.01;87.29;100470.47;5008432;28;20545;-70
2021/06/12 06:13:11;;;;;;;13.07;10.45;;;;;;;19.11;87.43;100473.13;5014844;28;20049;-78
2021/06/12 06:15:36;;;;;;;15.73;11.73;;;;;;;19.20;87.79;100466.16;5014979;28;20497;-71
2021/06/12 06:18:02;;;;;;;14.43;9.77;;;;;;;19.30;86.80;100466.16;5014697;28;20080;-72
2021/06/12 06:20:27;;;;;;;12.38;10.50;;;;;;;19.30;85.67;100447.84;5014945;28;20117;-72
2021/06/12 06:22:53;;;;;;;11.77;8.85;;;;;;;19.43;86.22;100465.31;5014671;28;20485;-73
2021/06/12 06:25:18;;;;;;;11.98;9.63;;;;;;;19.24;85.83;100425.16;5015130;28;20057;-70
2021/06/12 06:27:47;;;;;;;10.95;9.82;;;;;;;19.43;85.61;100449.59;5014606;28;20487;-71
2021/06/12 06:30:12;;;;;;;11.55;9.98;;;;;;;19.63;86.70;100462.69;5013478;28;20032;-69
2021/06/12 06:32:38;;;;;;;12.07;9.02;;;;;;;19.62;84.99;100460.94;5014661;28;20584;-71
2021/06/12 06:35:04;;;;;;;14.82;9.70;;;;;;;19.61;85.73;100461.81;5014022;28;20034;-70
2021/06/12 06:37:30;;;;;;;10.82;9.25;;;;;;;19.58;86.04;100463.53;5013341;28;20037;-73
2021/06/12 06:39:55;;;;;;;10.57;9.13;;;;;;;19.71;85.49;100462.66;5013289;28;20428;-71
2021/06/12 06:42:21;;;;;;;10.18;8.82;;;;;;;19.82;83.79;100468.78;5014512;28;20064;-70
2021/06/12 06:44:46;;;;;;;11.07;9.85;;;;;;;19.82;84.53;100450.44;5014541;28;20053;-78
2021/06/12 06:47:11;;;;;;;9.98;8.98;;;;;;;19.96;83.45;100454.81;5013176;28;20022;-70
2021/06/12 06:49:37;;;;;;;8.65;7.40;;;;;;;19.94;83.17;100465.31;5014249;28;20044;-71
2021/06/12 06:52:03;;;;;;;8.40;6.07;;;;;;;19.90;83.30;100447.84;5014058;28;20028;-69
2021/06/12 06:54:29;;;;;;;8.13;6.00;;;;;;;20.04;80.98;100450.44;5013007;28;20057;-69
2021/06/12 06:59:57;;;;;;;9.75;4.68;;;;;;;19.40;78.97;100410.31;4998579;28;20088;-76
2021/06/12 07:02:41;;;;;;;9.02;4.75;;;;;;;19.56;79.56;100458.31;5002226;28;20033;-74
2021/06/12 07:05:07;;;;;;;6.38;4.88;;;;;;;19.65;80.91;100452.19;4997057;28;20482;-71
2021/06/12 07:07:33;;;;;;;6.38;5.43;;;;;;;19.77;81.09;100446.94;5002965;28;20030;-71
2021/06/12 07:09:58;;;;;;;6.15;4.85;;;;;;;19.80;79.71;100444.34;5013899;28;20031;-72
2021/06/12 07:12:24;;;;;;;8.77;5.65;;;;;;;19.92;79.45;100446.09;4994391;28;20018;-72
2021/06/12 07:14:49;;;;;;;7.93;6.05;;;;;;;19.76;80.21;100408.53;4998924;28;20030;-72
2021/06/12 07:17:14;;;;;;;6.00;4.88;;;;;;;20.07;78.57;100436.47;5013006;28;20537;-71
2021/06/12 07:19:40;;;;;;;7.90;5.68;;;;;;;20.15;78.50;100432.03;5014250;28;20550;-71
2021/06/12 07:22:05;;;;;;;12.30;5.47;;;;;;;20.24;80.43;100445.13;5023453;28;20476;-72
2021/06/12 07:24:32;;;;;;;9.52;5.70;;;;;;;20.17;79.69;100441.66;5025234;28;20036;-75
2021/06/12 07:26:58;;;;;;;6.78;5.68;;;;;;;20.21;77.90;100434.66;5027321;28;20062;-70
2021/06/12 07:29:24;;;;;;;8.60;5.40;;;;;;;20.22;80.26;100428.53;5023326;28;20033;-70
2021/06/12 07:31:49;;;;;;;6.35;5.32;;;;;;;20.33;78.05;100446.84;5028229;28;20029;-75
2021/06/12 07:34:15;;;;;;;7.55;5.35;;;;;;;20.15;80.33;100424.19;5024103;28;20073;-70
2021/06/12 07:37:18;;;;;;;12.18;5.28;;;;;;;20.37;80.16;100445.97;5020813;28;20079;-70
2021/06/12 07:39:43;;;;;;;6.75;6.05;;;;;;;20.38;80.90;100438.97;5019165;28;20022;-70
2021/06/12 07:42:09;;;;;;;9.35;5.72;;;;;;;19.79;81.27;100378.84;5027799;28;20045;-71
2021/06/12 07:44:34;;;;;;;7.80;6.30;;;;;;;20.25;81.96;100448.63;5004290;28;20034;-71
2021/06/12 07:47:00;;;;;;;10.50;5.28;;;;;;;20.34;80.53;100431.09;5026697;28;20024;-76
2021/06/12 07:49:25;;;;;;;8.75;5.63;;;;;;;20.15;82.98;100385.75;5024595;28;20026;-70
2021/06/12 07:51:51;;;;;;;6.80;5.47;;;;;;;20.33;80.24;100407.53;5026073;28;20447;-69
2021/06/12 07:54:17;;;;;;;7.82;5.65;;;;;;;20.00;79.24;100396.28;5021834;28;20033;-69
2021/06/12 07:56:43;;;;;;;7.50;5.55;;;;;;;20.34;79.76;100436.34;5013461;28;20018;-74
2021/06/12 07:59:08;;;;;;;7.88;5.70;;;;;;;20.31;78.94;100432.88;5013005;28;20033;-75
2021/06/12 08:01:34;;;;;;;7.20;5.10;;;;;;;20.44;78.56;100438.97;5012947;28;20397;-71
2021/06/12 08:07:21;;;;;;;6.65;4.80;;;;;;;20.59;80.42;100438.88;5013145;28;20036;-70
2021/06/12 08:09:46;;;;;;;7.93;4.68;;;;;;;20.83;77.26;100437.88;5012951;28;20108;-72
2021/06/12 08:12:13;;;;;;;7.65;4.93;;;;;;;21.00;77.02;100431.69;5012576;28;20068;-71
2021/06/12 08:14:38;;;;;;;6.40;4.75;;;;;;;20.94;74.67;100421.22;5012919;28;20022;-72
2021/06/12 08:17:04;;;;;;;6.05;4.13;;;;;;;20.96;70.49;100407.22;5012339;28;20080;-70
2021/06/12 08:19:29;;;;;;;5.93;3.72;;;;;;;21.24;68.40;100430.63;5012733;28;20493;-69
2021/06/12 08:21:55;;;;;;;4.88;3.78;;;;;;;21.19;68.67;100426.31;5011523;28;20120;-73
2021/06/12 08:24:20;;;;;;;5.75;4.07;;;;;;;21.39;70.56;100432.25;5012345;28;20112;-72
2021/06/12 08:26:46;;;;;;;6.03;4.53;;;;;;;21.33;71.20;100427.06;5010491;28;20129;-71
2021/06/12 08:32:15;;;;;;;5.90;4.05;;;;;;;21.55;69.75;100416.38;5003279;28;20073;-71
2021/06/12 08:34:40;;;;;;;9.63;4.50;;;;;;;21.42;69.47;100392.84;5012544;28;20030;-74
2021/06/12 08:37:06;;;;;;;5.78;4.00;;;;;;;21.58;70.16;100424.25;5011124;28;20051;-72
2021/06/12 08:42:17;;;;;;;5.70;4.00;;;;;;;21.29;72.84;100375.44;5012202;28;20036;-69
2021/06/12 08:44:44;;;;;;;6.85;4.03;;;;;;;21.48;73.32;100415.53;5012082;28;20026;-75
2021/06/12 08:47:10;;;;;;;7.60;4.22;;;;;;;21.55;71.73;100419.00;5012427;28;20042;-70
2021/06/12 08:49:41;;;;;;;6.40;3.97;;;;;;;21.90;71.93;100423.94;5108090;27;20121;-74
2021/06/12 08:52:07;;;;;;;8.30;4.38;;;;;;;21.83;72.00;100398.59;5108907;28;20479;-71
2021/06/12 08:54:33;;;;;;;6.30;3.70;;;;;;;21.89;69.77;100413.44;5108582;28;20044;-70
2021/06/12 08:56:59;;;;;;;6.05;3.92;;;;;;;22.06;70.72;100423.78;5108914;28;20061;-71
2021/06/12 08:59:27;;;;;;;5.90;3.75;;;;;;;22.27;69.60;100417.41;5108774;28;20391;-72
2021/06/12 09:01:52;;;;;;;7.40;4.07;;;;;;;22.41;68.43;100415.47;5108851;28;20024;-72
2021/06/12 09:04:35;;;;;;;4.97;3.38;;;;;;;22.16;66.41;100419.25;5108624;28;20027;-71
2021/06/12 09:07:22;;;;;;;5.07;3.50;;;;;;;22.13;64.71;100407.91;5108629;28;20031;-73
2021/06/12 09:12:47;;;;;;;7.32;3.63;;;;;;;22.44;64.52;100414.56;5108213;28;20038;-70
2021/06/12 09:15:16;;;;;;;6.78;3.33;;;;;;;22.45;65.07;100396.16;5108272;28;20122;-73
2021/06/12 09:17:45;;;;;;;4.93;3.35;;;;;;;22.22;64.26;100342.94;5108296;28;20031;-75
2021/06/12 09:20:11;;;;;;;5.15;3.33;;;;;;;22.72;67.22;100388.75;5108812;28;20028;-74
2021/06/12 09:22:36;;;;;;;5.55;3.40;;;;;;;22.86;63.28;100390.31;5108128;28;20031;-71
2021/06/12 09:25:03;;;;;;;8.80;4.05;;;;;;;23.13;65.04;100393.38;5107410;28;20398;-70
2021/06/12 09:27:28;;;;;;;5.45;2.95;;;;;;;23.27;62.73;100399.34;5108061;28;20028;-72
2021/06/12 09:29:54;;;;;;;4.32;3.30;;;;;;;23.35;59.30;100384.28;5107311;28;20034;-74
2021/06/12 09:32:28;;;;;;;5.15;3.20;;;;;;;23.27;60.25;100331.72;5108314;28;20032;-72
2021/06/12 09:35:23;;;;;;;3.72;3.03;;;;;;;23.76;59.43;100389.69;5106629;28;20495;-70
2021/06/12 09:37:49;;;;;;;4.10;2.80;;;;;;;23.65;57.44;100344.22;5107788;28;20027;-71
2021/06/12 09:43:30;;;;;;;7.13;3.10;;;;;;;24.46;60.63;100390.94;5107904;28;20085;-74
2021/06/12 09:45:56;;;;;;;5.88;3.35;;;;;;;24.55;61.70;100390.75;5107909;28;20028;-71
2021/06/12 09:48:22;;;;;;;5.97;3.40;;;;;;;24.49;58.75;100386.47;5106088;28;20101;-71
2021/06/12 09:51:07;;;;;;;6.00;3.70;;;;;;;24.37;58.70;100387.63;5104886;28;20035;-72
2021/06/12 09:53:38;;;;;;;5.05;2.92;;;;;;;23.97;57.40;100385.78;5104230;28;20482;-73
2021/06/12 09:56:11;;;;;;;4.60;2.83;;;;;;;24.42;58.00;100390.13;5104003;28;20107;-69
2021/06/12 09:59:07;;;;;;;4.07;3.00;;;;;;;24.64;56.91;100390.53;5106153;28;20386;-71
2021/06/12 10:04:36;;;;;;;5.10;3.92;;;;;;;24.54;59.20;100381.09;5079397;28;20043;-70
2021/06/12 10:07:01;;;;;;;4.75;3.40;;;;;;;24.19;60.27;100359.84;5072793;28;20036;-70
2021/06/12 10:09:27;;;;;;;3.25;2.75;;;;;;;24.71;56.25;100367.53;5093719;28;20483;-72
2021/06/12 10:11:53;;;;;;;4.22;2.90;;;;;;;24.90;56.46;100364.44;5093774;28;20028;-71
2021/06/12 10:14:19;;;;;;;4.45;3.08;;;;;;;24.95;55.10;100352.88;5093759;28;20024;-70
2021/06/12 10:17:04;;;;;;;4.50;3.00;;;;;;;25.37;56.11;100353.63;5093973;28;20192;-73
2021/06/12 10:19:31;;;;;;;3.58;3.05;;;;;;;25.51;55.78;100352.34;5092038;28;20023;-70
2021/06/12 10:21:57;;;;;;;6.78;2.80;;;;;;;25.47;55.72;100352.47;5093393;28;20495;-71
2021/06/12 10:24:29;;;;;;;3.85;2.92;;;;;;;24.99;56.27;100358.97;5055352;28;20126;-70
2021/06/12 10:26:56;;;;;;;5.63;2.70;;;;;;;25.13;55.58;100343.63;5076685;28;20499;-74
2021/06/12 10:29:22;;;;;;;4.80;3.08;;;;;;;24.53;58.50;100284.34;5078927;28;20034;-72
2021/06/12 10:31:48;;;;;;;4.60;3.20;;;;;;;25.35;54.88;100325.44;5075799;28;20388;-75
2021/06/12 10:34:14;;;;;;;3.63;3.08;;;;;;;25.77;58.97;100341.97;5078779;28;20035;-70
2021/06/12 10:36:58;;;;;;;3.20;2.75;;;;;;;26.21;53.37;100336.34;5077146;28;20505;-72
2021/06/12 10:39:26;;;;;;;4.50;2.67;;;;;;;26.45;51.38;100319.69;5079296;28;20024;-72
2021/06/12 10:45:11;;;;;;;2.97;2.58;;;;;;;26.86;49.01;100307.84;5084328;28;20114;-73
2021/06/12 10:47:43;;;;;;;3.55;2.63;;;;;;;27.01;49.71;100323.22;5089766;28;20056;-74
2021/06/12 10:50:32;;;;;;;3.90;2.70;;;;;;;27.38;47.54;100310.50;5088912;28;20024;-73
2021/06/12 10:53:18;;;;;;;5.38;2.83;;;;;;;27.45;48.77;100319.97;5028821;28;20040;-73
2021/06/12 10:55:51;;;;;;;4.25;2.60;;;;;;;27.17;49.11;100312.09;5011512;28;20030;-72
2021/06/12 10:58:35;;;;;;;2.75;2.47;;;;;;;27.02;47.73;100263.16;5028192;28;20033;-72
2021/06/12 11:01:07;;;;;;;3.20;2.60;;;;;;;27.62;48.07;100311.41;5026363;28;20041;-72
2021/06/12 11:04:19;;;;;;;4.60;2.40;;;;;;;27.75;46.10;100310.03;5011426;28;20041;-72
2021/06/12 11:07:22;;;;;;;3.30;2.42;;;;;;;27.46;46.86;100300.50;5028491;28;20105;-72
2021/06/12 11:09:48;;;;;;;4.05;2.70;;;;;;;27.07;47.45;100282.41;5028816;28;20048;-72
2021/06/12 11:12:14;;;;;;;4.55;2.50;;;;;;;27.14;46.44;100294.50;5028094;28;20037;-73
2021/06/12 11:14:40;;;;;;;6.78;2.40;;;;;;;27.08;49.78;100297.41;5028439;28;20041;-72
2021/06/12 11:17:10;;;;;;;4.22;2.70;;;;;;;26.60;48.36;100236.25;5030227;28;20588;-73
2021/06/12 11:23:01;;;;;;;3.78;2.80;;;;;;;26.83;47.66;100277.03;5026055;28;20048;-71
2021/06/12 11:25:28;;;;;;;2.90;2.35;;;;;;;26.87;46.88;100264.56;5028363;28;20107;-72
2021/06/12 11:28:14;;;;;;;5.30;2.38;;;;;;;27.16;45.82;100268.81;5025553;28;20037;-73
2021/06/12 11:30:40;;;;;;;3.28;2.40;;;;;;;26.79;45.35;100270.09;5069833;28;20040;-71
2021/06/12 11:33:06;;;;;;;5.30;2.70;;;;;;;26.61;45.14;100283.00;5080982;28;20491;-70
2021/06/12 11:35:45;;;;;;;5.43;2.65;;;;;;;26.09;46.17;100207.94;5072866;28;20033;-72
2021/06/12 11:38:34;;;;;;;3.47;2.40;;;;;;;26.21;49.04;100271.03;5069445;28;20040;-69
2021/06/12 11:41:12;;;;;;;5.13;2.38;;;;;;;26.66;45.82;100239.63;5069597;28;20503;-69
2021/06/12 11:43:50;;;;;;;4.85;2.30;;;;;;;27.05;43.18;100265.69;5069474;28;20036;-73
2021/06/12 11:46:44;;;;;;;3.83;2.50;;;;;;;27.28;44.05;100263.09;5063830;28;20024;-72
2021/06/12 11:49:12;;;;;;;2.80;2.20;;;;;;;27.51;42.39;100256.09;5001884;28;20514;-73
2021/06/12 11:51:46;;;;;;;3.50;2.20;;;;;;;27.35;42.72;100241.66;5000922;28;20042;-68
2021/06/12 11:54:18;;;;;;;3.60;2.20;;;;;;;27.25;42.71;100263.22;4992407;28;20034;-71
2021/06/12 11:56:56;;;;;;;3.20;2.10;;;;;;;27.06;42.58;100259.47;5000961;28;20603;-70
2021/06/12 11:59:25;;;;;;;4.05;2.15;;;;;;;26.41;42.02;100198.09;5007185;28;20030;-72
2021/06/12 12:02:00;;;;;;;3.15;2.40;;;;;;;26.42;43.80;100210.41;5008553;28;20034;-72
2021/06/12 12:04:36;;;;;;;3.70;2.20;;;;;;;26.79;43.05;100246.25;5012654;28;20125;-74
2021/06/12 12:07:05;;;;;;;3.35;2.60;;;;;;;26.87;43.65;100251.31;5006336;28;20475;-71
2021/06/12 12:09:37;;;;;;;2.75;2.17;;;;;;;26.75;43.53;100247.28;5014903;28;20033;-71
2021/06/12 12:12:08;;;;;;;4.25;2.40;;;;;;;26.78;44.83;100252.47;5027583;28;20406;-72
2021/06/12 12:14:36;;;;;;;5.72;2.50;;;;;;;26.56;45.94;100250.50;5026686;28;20034;-72
2021/06/12 12:17:04;;;;;;;3.40;2.55;;;;;;;26.45;46.50;100239.41;5026648;28;20029;-73